createdAt,value
2022-10-15T00:01:32.028Z,10.15
2022-10-15T00:04:02.526Z,10.17
2022-10-15T00:06:29.330Z,10.20
2022-10-15T00:08:56.443Z,10.22
2022-10-15T00:11:28.801Z,10.25
2022-10-15T00:13:58.055Z,10.25
2022-10-15T00:16:28.040Z,10.25
2022-10-15T00:18:59.476Z,10.25
2022-10-15T00:21:26.205Z,10.25
2022-10-15T00:23:52.826Z,10.24
2022-10-15T00:26:23.197Z,10.24
2022-10-15T00:28:51.989Z,10.22
2022-10-15T00:31:21.088Z,10.21
2022-10-15T00:33:49.830Z,10.20
2022-10-15T00:36:20.022Z,10.17
2022-10-15T00:38:46.664Z,10.14
2022-10-15T00:41:16.535Z,10.14
2022-10-15T00:43:49.201Z,10.11
2022-10-15T00:46:41.569Z,10.10
2022-10-15T00:49:26.059Z,10.10
2022-10-15T00:52:00.844Z,10.10
2022-10-15T00:54:31.782Z,10.09
2022-10-15T00:56:59.166Z,10.09
2022-10-15T00:59:29.647Z,10.09
2022-10-15T01:01:56.251Z,10.10
2022-10-15T01:04:23.911Z,10.09
2022-10-15T01:06:50.560Z,10.07
2022-10-15T01:09:17.276Z,10.05
2022-10-15T01:11:52.241Z,10.04
2022-10-15T01:14:24.835Z,10.00
2022-10-15T01:17:01.988Z,9.96
2022-10-15T01:19:45.490Z,9.95
2022-10-15T01:22:33.962Z,9.95
2022-10-15T01:25:09.593Z,9.92
2022-10-15T01:27:44.224Z,9.94
2022-10-15T01:30:19.953Z,9.94
2022-10-15T01:32:58.650Z,9.95
2022-10-15T01:35:54.645Z,9.96
2022-10-15T01:38:37.423Z,10.00
2022-10-15T01:41:11.055Z,10.04
2022-10-15T01:44:02.619Z,10.05
2022-10-15T01:46:54.930Z,10.07
2022-10-15T01:49:26.354Z,10.07
2022-10-15T01:51:55.635Z,10.07
2022-10-15T01:54:26.647Z,10.07
2022-10-15T01:56:55.289Z,10.08
2022-10-15T01:59:29.963Z,10.04
2022-10-15T02:01:58.088Z,10.03
2022-10-15T02:04:30.322Z,10.02
2022-10-15T02:07:07.088Z,10.00
2022-10-15T02:09:55.295Z,9.98
2022-10-15T02:12:24.767Z,9.96
2022-10-15T02:14:59.203Z,9.93
2022-10-15T02:17:38.862Z,9.91
2022-10-15T02:20:29.157Z,9.88
2022-10-15T02:23:02.391Z,9.88
2022-10-15T02:25:29.678Z,9.88
2022-10-15T02:27:57.996Z,9.87
2022-10-15T02:30:25.114Z,9.88
2022-10-15T02:32:57.462Z,9.86
2022-10-15T02:35:26.384Z,9.82
2022-10-15T02:37:54.711Z,9.82
2022-10-15T02:40:27.362Z,9.77
2022-10-15T02:42:54.394Z,9.77
2022-10-15T02:45:21.497Z,9.73
2022-10-15T02:47:48.082Z,9.70
2022-10-15T02:50:14.798Z,9.68
2022-10-15T02:52:41.444Z,9.70
2022-10-15T02:55:08.553Z,9.71
2022-10-15T02:57:35.324Z,9.71
2022-10-15T03:00:01.958Z,9.72
2022-10-15T03:02:28.550Z,9.74
2022-10-15T03:04:55.120Z,9.74
2022-10-15T03:07:22.160Z,9.73
2022-10-15T03:09:48.918Z,9.72
2022-10-15T03:12:15.866Z,9.70
2022-10-15T03:14:42.458Z,9.70
2022-10-15T03:17:09.116Z,9.71
2022-10-15T03:19:36.061Z,9.71
2022-10-15T03:22:02.650Z,9.71
2022-10-15T03:24:29.238Z,9.69
2022-10-15T03:26:55.858Z,9.68
2022-10-15T03:29:22.448Z,9.69
2022-10-15T03:31:49.233Z,9.69
2022-10-15T03:34:16.171Z,9.70
2022-10-15T03:36:42.893Z,9.72
2022-10-15T03:39:09.554Z,9.73
2022-10-15T03:41:36.221Z,9.76
2022-10-15T03:44:05.003Z,9.74
2022-10-15T03:46:31.960Z,9.75
2022-10-15T03:48:58.558Z,9.76
2022-10-15T03:51:26.737Z,9.76
2022-10-15T03:53:54.712Z,9.77
2022-10-15T03:56:21.436Z,9.77
2022-10-15T03:58:48.345Z,9.78
2022-10-15T04:01:17.565Z,9.79
2022-10-15T04:03:44.378Z,9.79
2022-10-15T04:06:11.101Z,9.82
2022-10-15T04:08:37.705Z,9.81
2022-10-15T04:11:04.330Z,9.80
2022-10-15T04:13:30.938Z,9.83
2022-10-15T04:15:57.539Z,9.83
2022-10-15T04:18:24.179Z,9.83
2022-10-15T04:20:50.824Z,9.85
2022-10-15T04:23:18.290Z,9.87
2022-10-15T04:25:46.154Z,9.87
2022-10-15T04:28:12.730Z,9.89
2022-10-15T04:30:39.331Z,9.88
2022-10-15T04:33:05.950Z,9.90
2022-10-15T04:35:32.597Z,9.91
2022-10-15T04:37:59.745Z,9.92
2022-10-15T04:40:26.542Z,9.93
2022-10-15T04:42:53.160Z,9.92
2022-10-15T04:45:19.880Z,9.93
2022-10-15T04:47:46.563Z,9.92
2022-10-15T04:50:13.178Z,9.93
2022-10-15T04:52:40.447Z,9.94
2022-10-15T04:55:07.434Z,9.94
2022-10-15T04:57:34.020Z,9.97
2022-10-15T05:00:00.681Z,9.98
2022-10-15T05:02:27.325Z,10.00
2022-10-15T05:04:54.029Z,10.00
2022-10-15T05:07:20.930Z,10.02
2022-10-15T05:09:47.784Z,10.03
2022-10-15T05:12:14.431Z,10.04
2022-10-15T05:14:41.975Z,10.07
2022-10-15T05:17:08.706Z,10.09
2022-10-15T05:19:35.305Z,10.09
2022-10-15T05:22:01.959Z,10.11
2022-10-15T05:24:28.581Z,10.09
2022-10-15T05:26:55.165Z,10.09
2022-10-15T05:29:21.829Z,10.10
2022-10-15T05:31:51.871Z,10.11
2022-10-15T05:34:18.614Z,10.13
2022-10-15T05:36:45.220Z,10.17
2022-10-15T05:39:12.321Z,10.21
2022-10-15T05:41:39.010Z,10.25
2022-10-15T05:44:05.788Z,10.28
2022-10-15T05:46:32.396Z,10.32
2022-10-15T05:48:59.235Z,10.36
2022-10-15T05:51:27.847Z,10.39
2022-10-15T05:53:55.473Z,10.41
2022-10-15T05:56:22.378Z,10.44
2022-10-15T05:58:52.831Z,10.47
2022-10-15T06:01:19.931Z,10.52
2022-10-15T06:03:46.714Z,10.55
2022-10-15T06:06:16.079Z,10.61
2022-10-15T06:08:42.958Z,10.64
2022-10-15T06:11:09.738Z,10.68
2022-10-15T06:13:38.603Z,10.75
2022-10-15T06:16:05.802Z,10.78
2022-10-15T06:18:32.643Z,10.82
2022-10-15T06:20:59.615Z,10.87
2022-10-15T06:23:26.328Z,10.91
2022-10-15T06:25:53.087Z,10.98
2022-10-15T06:28:19.852Z,11.01
2022-10-15T06:30:46.506Z,11.04
2022-10-15T06:33:13.264Z,11.06
2022-10-15T06:35:41.333Z,11.08
2022-10-15T06:38:08.028Z,11.10
2022-10-15T06:40:34.626Z,11.14
2022-10-15T06:43:09.578Z,11.18
2022-10-15T06:45:42.534Z,11.20
2022-10-15T06:48:09.539Z,11.22
2022-10-15T06:50:38.479Z,11.24
2022-10-15T06:53:05.697Z,11.28
2022-10-15T06:55:32.371Z,11.31
2022-10-15T06:57:59.064Z,11.36
2022-10-15T07:00:26.110Z,11.42
2022-10-15T07:02:52.969Z,11.46
2022-10-15T07:05:20.374Z,11.54
2022-10-15T07:07:57.340Z,11.58
2022-10-15T07:10:26.180Z,11.69
2022-10-15T07:12:54.228Z,11.75
2022-10-15T07:15:21.378Z,11.82
2022-10-15T07:17:52.201Z,11.88
2022-10-15T07:20:21.962Z,11.92
2022-10-15T07:22:51.309Z,11.96
2022-10-15T07:25:17.953Z,12.00
2022-10-15T07:27:44.975Z,12.05
2022-10-15T07:30:11.726Z,12.11
2022-10-15T07:32:38.480Z,12.16
2022-10-15T07:35:05.541Z,12.21
2022-10-15T07:37:32.229Z,12.25
2022-10-15T07:39:58.861Z,12.28
2022-10-15T07:42:25.602Z,12.32
2022-10-15T07:44:52.395Z,12.34
2022-10-15T07:47:19.066Z,12.36
2022-10-15T07:49:45.671Z,12.37
2022-10-15T07:52:12.392Z,12.37
2022-10-15T07:54:39.262Z,12.38
2022-10-15T07:57:07.178Z,12.39
2022-10-15T07:59:34.871Z,12.41
2022-10-15T08:02:04.535Z,12.43
2022-10-15T08:04:31.249Z,12.45
2022-10-15T08:06:58.357Z,12.47
2022-10-15T08:09:25.076Z,12.50
2022-10-15T08:11:51.664Z,12.53
2022-10-15T08:14:18.293Z,12.56
2022-10-15T08:16:44.899Z,12.60
2022-10-15T08:19:11.489Z,12.62
2022-10-15T08:21:38.177Z,12.66
2022-10-15T08:24:05.732Z,12.71
2022-10-15T08:26:32.442Z,12.75
2022-10-15T08:28:59.192Z,12.80
2022-10-15T08:31:25.903Z,12.87
2022-10-15T08:33:52.535Z,12.94
2022-10-15T08:36:19.310Z,13.02
2022-10-15T08:38:45.927Z,13.12
2022-10-15T08:41:29.280Z,13.18
2022-10-15T08:43:56.341Z,13.21
2022-10-15T08:46:29.024Z,13.22
2022-10-15T08:48:59.758Z,13.20
2022-10-15T08:51:32.774Z,13.16
2022-10-15T08:54:03.955Z,13.13
2022-10-15T08:56:38.025Z,13.11
2022-10-15T08:59:25.623Z,13.11
2022-10-15T09:02:01.291Z,13.08
2022-10-15T09:04:55.452Z,13.05
2022-10-15T09:07:36.787Z,13.03
2022-10-15T09:10:12.582Z,13.01
2022-10-15T09:12:56.908Z,12.99
2022-10-15T09:15:27.714Z,12.98
2022-10-15T09:17:55.599Z,12.97
2022-10-15T09:20:34.517Z,12.98
2022-10-15T09:23:01.304Z,12.98
2022-10-15T09:25:35.051Z,12.99
2022-10-15T09:28:10.557Z,13.01
2022-10-15T09:30:40.822Z,13.06
2022-10-15T09:33:25.270Z,13.11
2022-10-15T09:35:59.859Z,13.17
2022-10-15T09:38:58.586Z,13.21
2022-10-15T09:41:46.257Z,13.25
2022-10-15T09:44:15.790Z,13.30
2022-10-15T09:46:49.086Z,13.35
2022-10-15T09:49:26.663Z,13.38
2022-10-15T09:52:50.577Z,13.42
2022-10-15T09:55:40.815Z,13.49
2022-10-15T09:58:15.169Z,13.54
2022-10-15T10:00:59.366Z,13.58
2022-10-15T10:03:29.455Z,13.60
2022-10-15T10:06:06.423Z,13.61
2022-10-15T10:11:19.322Z,13.59
2022-10-15T10:13:48.995Z,13.61
2022-10-15T10:16:17.866Z,13.64
2022-10-15T10:18:50.989Z,13.65
2022-10-15T10:21:31.885Z,13.68
2022-10-15T10:24:30.281Z,13.68
2022-10-15T10:26:58.560Z,13.67
2022-10-15T10:29:34.176Z,13.69
2022-10-15T10:32:17.653Z,13.69
2022-10-15T10:34:50.048Z,13.73
2022-10-15T10:37:19.454Z,13.74
2022-10-15T10:39:51.875Z,13.76
2022-10-15T10:42:19.559Z,13.78
2022-10-15T10:44:46.913Z,13.79
2022-10-15T10:47:22.479Z,13.81
2022-10-15T10:49:57.502Z,13.82
2022-10-15T10:52:28.498Z,13.80
2022-10-15T10:55:00.296Z,13.77
2022-10-15T10:57:42.244Z,13.75
2022-10-15T11:00:15.222Z,13.74
2022-10-15T11:02:44.047Z,13.73
2022-10-15T11:05:12.169Z,13.69
2022-10-15T11:07:58.939Z,13.69
2022-10-15T11:10:51.699Z,13.70
2022-10-15T11:13:36.786Z,13.70
2022-10-15T11:16:11.647Z,13.72
2022-10-15T11:18:56.169Z,13.70
2022-10-15T11:21:22.722Z,13.69
2022-10-15T11:24:26.000Z,13.68
2022-10-15T11:27:17.292Z,13.65
2022-10-15T11:29:53.944Z,13.64
2022-10-15T11:32:42.111Z,13.61
2022-10-15T11:35:59.288Z,13.56
2022-10-15T11:41:43.608Z,13.53
2022-10-15T11:44:29.734Z,13.52
2022-10-15T11:46:59.198Z,13.55
2022-10-15T11:49:31.949Z,13.56
2022-10-15T11:52:24.543Z,13.57
2022-10-15T11:55:21.509Z,13.58
2022-10-15T11:57:52.822Z,13.60
2022-10-15T12:00:42.848Z,13.60
2022-10-15T12:03:25.728Z,13.62
2022-10-15T12:06:03.850Z,13.64
2022-10-15T12:08:35.110Z,13.65
2022-10-15T12:11:33.740Z,13.64
2022-10-15T12:14:13.697Z,13.63
2022-10-15T12:17:15.460Z,13.59
2022-10-15T12:19:56.709Z,13.56
2022-10-15T12:22:33.910Z,13.53
2022-10-15T12:25:01.653Z,13.49
2022-10-15T12:27:36.538Z,13.45
2022-10-15T12:30:03.102Z,13.43
2022-10-15T12:32:38.922Z,13.38
2022-10-15T12:35:33.550Z,13.35
2022-10-15T12:38:12.307Z,13.31
2022-10-15T12:40:40.552Z,13.31
2022-10-15T12:43:16.707Z,13.27
2022-10-15T12:45:53.458Z,13.26
2022-10-15T12:48:41.541Z,13.25
2022-10-15T12:51:16.971Z,13.24
2022-10-15T12:53:45.349Z,13.24
2022-10-15T12:56:17.894Z,13.22
2022-10-15T12:58:52.350Z,13.22
2022-10-15T13:01:18.959Z,13.21
2022-10-15T13:03:51.397Z,13.20
2022-10-15T13:06:20.774Z,13.21
2022-10-15T13:08:55.458Z,13.20
2022-10-15T13:11:31.372Z,13.20
2022-10-15T13:14:06.976Z,13.19
2022-10-15T13:16:35.038Z,13.18
2022-10-15T13:19:03.409Z,13.18
2022-10-15T13:21:49.609Z,13.18
2022-10-15T13:24:21.654Z,13.18
2022-10-15T13:26:49.075Z,13.18
2022-10-15T13:29:21.671Z,13.18
2022-10-15T13:31:48.525Z,13.19
2022-10-15T13:34:30.344Z,13.21
2022-10-15T13:37:00.598Z,13.20
2022-10-15T13:42:13.842Z,13.22
2022-10-15T13:44:40.805Z,13.24
2022-10-15T13:47:27.670Z,13.26
2022-10-15T13:50:19.249Z,13.24
2022-10-15T13:52:55.148Z,13.23
2022-10-15T13:55:25.478Z,13.24
2022-10-15T13:57:59.383Z,13.26
2022-10-15T14:00:29.800Z,13.24
2022-10-15T14:03:22.542Z,13.24
2022-10-15T14:05:51.726Z,13.24
2022-10-15T14:08:25.093Z,13.24
2022-10-15T14:10:54.874Z,13.23
2022-10-15T14:13:21.933Z,13.23
2022-10-15T14:16:15.536Z,13.24
2022-10-15T14:18:52.527Z,13.24
2022-10-15T14:21:31.966Z,13.23
2022-10-15T14:24:14.878Z,13.22
2022-10-15T14:26:42.030Z,13.22
2022-10-15T14:29:22.377Z,13.24
2022-10-15T14:31:49.571Z,13.23
2022-10-15T14:34:34.255Z,13.24
2022-10-15T14:37:22.195Z,13.25
2022-10-15T14:39:49.353Z,13.26
2022-10-15T14:42:31.777Z,13.25
2022-10-15T14:45:21.852Z,13.26
2022-10-15T14:47:51.842Z,13.26
2022-10-15T14:50:20.247Z,13.27
2022-10-15T14:52:51.407Z,13.27
2022-10-15T14:55:24.465Z,13.25
2022-10-15T14:57:52.001Z,13.25
2022-10-15T15:00:34.567Z,13.26
2022-10-15T15:03:04.828Z,13.26
2022-10-15T15:05:47.466Z,13.26
2022-10-15T15:08:14.645Z,13.26
2022-10-15T15:10:42.494Z,13.25
2022-10-15T15:13:16.819Z,13.25
2022-10-15T15:15:43.435Z,13.25
2022-10-15T15:18:11.159Z,13.24
2022-10-15T15:20:38.707Z,13.22
2022-10-15T15:23:05.706Z,13.22
2022-10-15T15:25:35.457Z,13.23
2022-10-15T15:28:02.215Z,13.24
2022-10-15T15:30:30.759Z,13.24
2022-10-15T15:32:57.790Z,13.24
2022-10-15T15:35:54.257Z,13.23
2022-10-15T15:38:23.776Z,13.23
2022-10-15T15:40:51.099Z,13.24
2022-10-15T15:43:19.004Z,13.24
2022-10-15T15:45:46.960Z,13.24
2022-10-15T15:48:14.277Z,13.24
2022-10-15T15:50:41.183Z,13.24
2022-10-15T15:53:07.814Z,13.24
2022-10-15T15:55:34.426Z,13.23
2022-10-15T15:58:01.043Z,13.23
2022-10-15T16:00:27.634Z,13.23
2022-10-15T16:02:57.118Z,13.19
2022-10-15T16:05:25.159Z,13.22
2022-10-15T16:07:51.825Z,13.20
2022-10-15T16:10:18.635Z,13.21
2022-10-15T16:12:45.267Z,13.19
2022-10-15T16:15:14.599Z,13.18
2022-10-15T16:17:42.311Z,13.17
2022-10-15T16:20:09.806Z,13.16
2022-10-15T16:22:36.413Z,13.15
2022-10-15T16:25:03.070Z,13.15
2022-10-15T16:27:29.734Z,13.13
2022-10-15T16:29:56.337Z,13.11
2022-10-15T16:32:22.995Z,13.10
2022-10-15T16:34:49.809Z,13.09
2022-10-15T16:37:16.434Z,13.09
2022-10-15T16:39:43.043Z,13.09
2022-10-15T16:42:09.973Z,13.09
2022-10-15T16:44:36.621Z,13.08
2022-10-15T16:47:03.241Z,13.08
2022-10-15T16:49:29.840Z,13.07
2022-10-15T16:51:56.482Z,13.08
2022-10-15T16:54:23.090Z,13.07
2022-10-15T16:56:52.847Z,13.06
2022-10-15T16:59:20.473Z,13.06
2022-10-15T17:01:47.381Z,13.05
2022-10-15T17:04:13.975Z,13.05
2022-10-15T17:06:40.677Z,13.07
2022-10-15T17:09:07.288Z,13.05
2022-10-15T17:11:39.471Z,13.06
2022-10-15T17:14:14.898Z,13.06
2022-10-15T17:16:51.187Z,13.06
2022-10-15T17:19:21.062Z,13.07
2022-10-15T17:21:47.729Z,13.06
2022-10-15T17:24:15.724Z,13.07
2022-10-15T17:26:43.560Z,13.05
2022-10-15T17:29:20.687Z,13.06
2022-10-15T17:31:48.801Z,13.06
2022-10-15T17:34:16.178Z,13.07
2022-10-15T17:36:47.277Z,13.06
2022-10-15T17:39:18.949Z,13.06
2022-10-15T17:41:45.572Z,13.07
2022-10-15T17:44:12.796Z,13.06
2022-10-15T17:46:39.793Z,13.09
2022-10-15T17:49:07.957Z,13.08
2022-10-15T17:51:34.921Z,13.10
2022-10-15T17:54:01.863Z,13.11
2022-10-15T17:56:31.503Z,13.11
2022-10-15T17:58:59.944Z,13.11
2022-10-15T18:01:33.860Z,13.12
2022-10-15T18:04:16.358Z,13.12
2022-10-15T18:06:44.994Z,13.11
2022-10-15T18:09:11.790Z,13.12
2022-10-15T18:11:38.774Z,13.12
2022-10-15T18:14:05.559Z,13.13
2022-10-15T18:16:32.727Z,13.14
2022-10-15T18:18:59.531Z,13.14
2022-10-15T18:21:28.313Z,13.15
2022-10-15T18:23:56.814Z,13.16
2022-10-15T18:26:23.929Z,13.16
2022-10-15T18:28:52.787Z,13.16
2022-10-15T18:31:20.427Z,13.16
2022-10-15T18:33:51.972Z,13.17
2022-10-15T18:36:23.165Z,13.17
2022-10-15T18:38:50.278Z,13.18
2022-10-15T18:41:27.817Z,13.18
2022-10-15T18:43:59.466Z,13.18
2022-10-15T18:46:29.646Z,13.20
2022-10-15T18:48:57.238Z,13.18
2022-10-15T18:51:25.528Z,13.19
2022-10-15T18:53:53.319Z,13.20
2022-10-15T18:56:21.034Z,13.18
2022-10-15T18:58:48.055Z,13.19
2022-10-15T19:01:29.763Z,13.19
2022-10-15T19:03:58.627Z,13.20
2022-10-15T19:06:32.022Z,13.19
2022-10-15T19:08:59.390Z,13.19
2022-10-15T19:11:26.554Z,13.18
2022-10-15T19:13:53.602Z,13.20
2022-10-15T19:16:20.304Z,13.20
2022-10-15T19:18:46.956Z,13.20
2022-10-15T19:21:13.839Z,13.21
2022-10-15T19:23:40.555Z,13.22
2022-10-15T19:26:08.756Z,13.22
2022-10-15T19:28:35.798Z,13.21
2022-10-15T19:31:04.591Z,13.21
2022-10-15T19:33:32.429Z,13.23
2022-10-15T19:35:59.603Z,13.23
2022-10-15T19:38:26.846Z,13.23
2022-10-15T19:40:54.047Z,13.24
2022-10-15T19:43:22.367Z,13.23
2022-10-15T19:45:49.667Z,13.22
2022-10-15T19:48:18.961Z,13.22
2022-10-15T19:50:46.992Z,13.22
2022-10-15T19:53:16.508Z,13.22
2022-10-15T19:55:44.790Z,13.23
2022-10-15T19:58:11.674Z,13.21
2022-10-15T20:00:38.309Z,13.21
2022-10-15T20:03:05.085Z,13.21
2022-10-15T20:05:31.737Z,13.20
2022-10-15T20:07:58.395Z,13.22
2022-10-15T20:10:26.344Z,13.22
2022-10-15T20:12:53.618Z,13.22
2022-10-15T20:15:20.614Z,13.24
2022-10-15T20:17:48.069Z,13.23
2022-10-15T20:20:15.004Z,13.24
2022-10-15T20:22:41.795Z,13.24
2022-10-15T20:25:09.186Z,13.26
2022-10-15T20:27:35.790Z,13.25
2022-10-15T20:30:02.674Z,13.25
2022-10-15T20:32:34.817Z,13.26
2022-10-15T20:35:03.026Z,13.26
2022-10-15T20:37:29.720Z,13.26
2022-10-15T20:42:23.145Z,13.26
2022-10-15T20:44:49.841Z,13.24
2022-10-15T20:47:16.712Z,13.22
2022-10-15T20:49:50.620Z,13.22
2022-10-15T20:52:17.322Z,13.22
2022-10-15T20:54:44.174Z,13.23
2022-10-15T20:57:11.367Z,13.22
2022-10-15T20:59:37.993Z,13.22
2022-10-15T21:02:04.650Z,13.20
2022-10-15T21:04:31.303Z,13.20
2022-10-15T21:06:58.269Z,13.19
2022-10-15T21:09:24.998Z,13.18
2022-10-15T21:11:51.667Z,13.17
2022-10-15T21:14:18.276Z,13.19
2022-10-15T21:16:44.948Z,13.19
2022-10-15T21:19:11.590Z,13.18
2022-10-15T21:21:39.213Z,13.20
2022-10-15T21:24:06.015Z,13.18
2022-10-15T21:26:32.709Z,13.20
2022-10-15T21:29:00.563Z,13.20
2022-10-15T21:31:27.780Z,13.21
2022-10-15T21:33:55.497Z,13.21
2022-10-15T21:36:26.275Z,13.22
2022-10-15T21:38:58.774Z,13.22
2022-10-15T21:41:27.531Z,13.22
2022-10-15T21:43:55.010Z,13.20
2022-10-15T21:46:22.050Z,13.20
2022-10-15T21:48:49.594Z,13.19
2022-10-15T21:51:20.074Z,13.19
2022-10-15T21:53:47.442Z,13.19
2022-10-15T21:56:14.488Z,13.17
2022-10-15T21:58:41.593Z,13.15
2022-10-15T22:01:15.875Z,13.15
2022-10-15T22:03:44.821Z,13.14
2022-10-15T22:06:12.516Z,13.13
2022-10-15T22:08:39.222Z,13.13
2022-10-15T22:11:18.502Z,13.14
2022-10-15T22:13:47.534Z,13.14
2022-10-15T22:16:15.696Z,13.13
2022-10-15T22:18:42.359Z,13.14
2022-10-15T22:21:10.407Z,13.14
2022-10-15T22:23:37.133Z,13.13
2022-10-15T22:26:03.719Z,13.12
2022-10-15T22:28:30.390Z,13.09
2022-10-15T22:31:02.675Z,13.09
2022-10-15T22:33:29.323Z,13.09
2022-10-15T22:36:00.723Z,13.09
2022-10-15T22:38:27.409Z,13.09
2022-10-15T22:40:55.828Z,13.10
2022-10-15T22:43:23.282Z,13.11
2022-10-15T22:45:50.559Z,13.11
2022-10-15T22:48:17.301Z,13.10
2022-10-15T22:50:43.935Z,13.10
2022-10-15T22:53:10.863Z,13.10
2022-10-15T22:55:37.439Z,13.10
2022-10-15T22:58:04.169Z,13.10
2022-10-15T23:00:31.371Z,13.09
2022-10-15T23:02:57.982Z,13.11
2022-10-15T23:05:30.774Z,13.11
2022-10-15T23:07:57.447Z,13.09
2022-10-15T23:10:24.103Z,13.09
2022-10-15T23:12:50.743Z,13.10
2022-10-15T23:15:17.618Z,13.10
2022-10-15T23:17:44.254Z,13.08
2022-10-15T23:20:11.391Z,13.09
2022-10-15T23:22:38.009Z,13.09
2022-10-15T23:25:05.141Z,13.10
2022-10-15T23:27:31.943Z,13.10
2022-10-15T23:30:14.042Z,13.11
2022-10-15T23:32:45.158Z,13.10
2022-10-15T23:35:11.961Z,13.10
2022-10-15T23:37:42.459Z,13.10
2022-10-15T23:40:09.956Z,13.09
2022-10-15T23:42:36.550Z,13.06
2022-10-15T23:45:03.343Z,13.05
2022-10-15T23:47:29.948Z,13.05
2022-10-15T23:49:56.646Z,13.05
2022-10-15T23:52:23.270Z,13.06
2022-10-15T23:54:50.314Z,13.05
2022-10-15T23:57:16.920Z,13.01
2022-10-15T23:59:43.516Z,13.00
